Time;durP1;ratioP1;P1;durP2;ratioP2;P2;SDS_P1;SDS_P2;PMS_P1;PMS_P2;Temp;Humidity;BMP_temperature;BMP_pressure;BME280_temperature;BME280_humidity;BME280_pressure;Samples;Min_cycle;Max_cycle;Signal;HPM_P1;HPM_P2
2022/09/15 00:01:39;;;;;;;7.78;5.78;;;15.20;99.90;;;;;;5067153;28;20031;-58
2022/09/15 00:04:05;;;;;;;6.32;5.68;;;15.20;99.90;;;;;;5052061;28;20108;-58
2022/09/15 00:06:31;;;;;;;7.93;6.03;;;15.20;99.90;;;;;;5052342;28;20400;-58
2022/09/15 00:08:58;;;;;;;8.98;6.43;;;15.20;99.90;;;;;;5051080;28;20040;-57
2022/09/15 00:11:27;;;;;;;8.18;6.05;;;15.20;99.90;;;;;;5052176;28;20024;-58
2022/09/15 00:13:53;;;;;;;9.30;6.50;;;15.20;99.90;;;;;;5052550;28;20094;-58
2022/09/15 00:16:21;;;;;;;9.15;6.18;;;15.20;99.90;;;;;;5041097;28;20040;-57
2022/09/15 00:18:47;;;;;;;9.75;7.88;;;15.20;99.90;;;;;;5051176;28;20040;-58
2022/09/15 00:21:22;;;;;;;10.80;7.85;;;15.10;99.90;;;;;;5040044;28;20037;-58
2022/09/15 00:23:48;;;;;;;8.48;6.70;;;15.10;99.90;;;;;;5051974;28;20013;-58
2022/09/15 00:26:17;;;;;;;10.55;8.50;;;15.10;99.90;;;;;;5052503;28;20083;-57
2022/09/15 00:28:43;;;;;;;8.33;7.00;;;15.10;99.90;;;;;;5051828;28;20033;-57
2022/09/15 00:31:13;;;;;;;7.10;6.28;;;15.00;99.90;;;;;;5051390;28;20298;-57
2022/09/15 00:33:38;;;;;;;7.35;5.82;;;15.10;99.90;;;;;;5052135;28;20017;-58
2022/09/15 00:36:06;;;;;;;9.80;5.97;;;15.10;99.90;;;;;;5052227;28;20366;-58
2022/09/15 00:38:34;;;;;;;9.13;6.22;;;15.10;99.90;;;;;;5050344;28;20021;-57
2022/09/15 00:41:01;;;;;;;11.93;6.72;;;15.20;99.90;;;;;;5042165;28;20041;-58
2022/09/15 00:44:21;;;;;;;10.13;5.75;;;15.20;99.90;;;;;;5048918;28;20029;-57
2022/09/15 00:46:51;;;;;;;6.65;5.30;;;15.20;99.90;;;;;;4989856;28;20026;-57
2022/09/15 00:49:24;;;;;;;6.22;5.45;;;15.20;99.90;;;;;;5057369;28;20037;-57
2022/09/15 00:52:12;;;;;;;7.78;5.90;;;15.20;99.90;;;;;;5037024;28;20022;-57
2022/09/15 00:54:47;;;;;;;8.15;6.50;;;15.30;99.90;;;;;;5052016;28;20078;-57
2022/09/15 00:57:35;;;;;;;8.68;6.63;;;15.30;99.90;;;;;;5051980;28;20496;-57
2022/09/15 01:00:03;;;;;;;12.23;6.50;;;15.30;99.90;;;;;;5050972;28;20041;-57
2022/09/15 01:02:33;;;;;;;8.70;6.75;;;15.30;99.90;;;;;;5051906;28;20017;-57
2022/09/15 01:05:01;;;;;;;8.75;7.15;;;15.30;99.90;;;;;;5051043;28;20029;-58
2022/09/15 01:07:38;;;;;;;11.18;7.65;;;15.30;99.90;;;;;;5050967;28;20022;-58
2022/09/15 01:10:27;;;;;;;11.60;7.68;;;15.30;99.90;;;;;;5051691;28;20492;-58
2022/09/15 01:12:58;;;;;;;8.18;6.70;;;15.30;99.90;;;;;;5039362;28;20021;-58
2022/09/15 01:15:42;;;;;;;9.18;7.20;;;15.30;99.90;;;;;;5051568;28;20067;-58
2022/09/15 01:18:19;;;;;;;7.25;6.07;;;15.30;99.90;;;;;;5054598;28;20052;-58
2022/09/15 01:21:14;;;;;;;6.53;5.47;;;15.30;99.90;;;;;;5054508;28;20028;-58
2022/09/15 01:23:51;;;;;;;8.68;5.72;;;15.40;99.90;;;;;;5056026;28;20028;-58
2022/09/15 01:26:28;;;;;;;7.80;5.35;;;15.40;99.90;;;;;;5053481;28;20025;-58
2022/09/15 01:29:05;;;;;;;8.60;6.28;;;15.40;99.90;;;;;;5046119;28;20028;-58
2022/09/15 01:33:02;;;;;;;6.70;5.10;;;15.50;99.90;;;;;;5067601;28;20505;-58
2022/09/15 01:34:32;;;;;;;5.55;5.00;;;15.50;99.90;;;;;;5044665;28;20562;-58
2022/09/15 01:37:05;;;;;;;6.97;5.65;;;15.40;99.90;;;;;;5053612;28;20020;-57
2022/09/15 01:39:38;;;;;;;6.35;5.68;;;15.40;99.90;;;;;;5050543;28;20026;-57
2022/09/15 01:42:07;;;;;;;7.53;5.50;;;15.40;99.90;;;;;;5048587;28;20048;-58
2022/09/15 01:44:46;;;;;;;9.40;6.07;;;15.40;99.90;;;;;;5054040;28;20115;-57
2022/09/15 01:47:14;;;;;;;7.28;5.25;;;15.40;99.90;;;;;;5050676;28;20382;-57
2022/09/15 01:49:53;;;;;;;7.32;5.65;;;15.40;99.90;;;;;;5045623;28;20021;-58
2022/09/15 01:52:21;;;;;;;6.30;5.32;;;15.50;99.90;;;;;;5053513;28;20354;-58
2022/09/15 01:54:57;;;;;;;8.48;5.15;;;15.40;99.90;;;;;;5062372;28;20116;-57
2022/09/15 01:57:23;;;;;;;5.95;5.15;;;15.40;99.90;;;;;;5054319;28;20041;-58
2022/09/15 01:59:52;;;;;;;6.63;5.18;;;15.40;99.90;;;;;;5042503;28;20021;-58
2022/09/15 02:02:42;;;;;;;7.60;5.37;;;15.40;99.90;;;;;;5054851;28;20017;-58
2022/09/15 02:06:01;;;;;;;8.32;5.45;;;15.50;99.90;;;;;;5055068;28;20025;-58
2022/09/15 02:08:57;;;;;;;5.13;4.20;;;15.50;99.90;;;;;;5012964;28;20511;-58
2022/09/15 02:11:25;;;;;;;7.50;4.80;;;15.40;99.90;;;;;;5045014;28;20021;-58
2022/09/15 02:14:09;;;;;;;6.53;4.97;;;15.40;99.90;;;;;;5054322;28;20419;-58
2022/09/15 02:16:37;;;;;;;5.97;4.97;;;15.40;99.90;;;;;;5054536;28;20404;-58
2022/09/15 02:19:34;;;;;;;5.50;4.63;;;15.40;99.90;;;;;;5034340;28;20481;-59
2022/09/15 02:22:17;;;;;;;5.60;4.72;;;15.40;99.90;;;;;;5050281;28;20028;-58
2022/09/15 02:24:49;;;;;;;8.65;5.18;;;15.40;99.90;;;;;;5053269;28;20060;-58
2022/09/15 02:27:21;;;;;;;6.57;5.38;;;15.40;99.90;;;;;;5054097;28;20029;-58
2022/09/15 02:29:48;;;;;;;7.07;5.85;;;15.40;99.90;;;;;;5054381;28;20025;-57
2022/09/15 02:32:16;;;;;;;8.80;5.80;;;15.40;99.90;;;;;;5052563;28;20515;-58
2022/09/15 02:34:46;;;;;;;6.47;4.70;;;15.40;99.90;;;;;;5052623;28;20480;-58
2022/09/15 02:37:12;;;;;;;7.25;5.38;;;15.40;99.90;;;;;;5046845;28;20030;-58
2022/09/15 02:39:42;;;;;;;6.47;5.47;;;15.40;99.90;;;;;;5048328;28;20033;-58
2022/09/15 02:42:08;;;;;;;;;;;15.40;99.90;;;;;;5054320;28;20047;-58
2022/09/15 02:44:34;;;;;;;7.95;5.07;;;15.30;99.90;;;;;;5051641;28;20342;-57
2022/09/15 02:47:00;;;;;;;5.72;4.63;;;15.30;99.90;;;;;;5043122;28;20508;-57
2022/09/15 02:49:26;;;;;;;6.75;5.32;;;15.30;99.90;;;;;;5053748;28;20109;-58
2022/09/15 02:51:51;;;;;;;7.70;5.57;;;15.30;99.90;;;;;;5052810;28;20108;-58
2022/09/15 02:54:17;;;;;;;7.28;5.20;;;15.30;99.90;;;;;;5052204;28;20067;-58
2022/09/15 02:56:43;;;;;;;6.18;5.32;;;15.30;99.90;;;;;;5053812;28;20056;-57
2022/09/15 02:59:09;;;;;;;7.93;5.78;;;15.30;99.90;;;;;;5052263;28;20024;-57
2022/09/15 03:01:34;;;;;;;7.32;5.35;;;15.30;99.90;;;;;;5052467;28;20024;-58
2022/09/15 03:04:03;;;;;;;6.93;4.65;;;15.30;99.90;;;;;;5053355;28;20025;-58
2022/09/15 03:06:33;;;;;;;7.80;5.03;;;15.30;99.90;;;;;;5053403;28;20029;-58
2022/09/15 03:09:00;;;;;;;6.10;5.00;;;15.30;99.90;;;;;;5053536;28;20095;-57
2022/09/15 03:11:27;;;;;;;7.03;4.80;;;15.30;99.90;;;;;;5052266;28;20017;-58
2022/09/15 03:13:55;;;;;;;5.88;4.80;;;15.30;99.90;;;;;;5051720;28;20032;-59
2022/09/15 03:16:22;;;;;;;5.78;4.57;;;15.30;99.90;;;;;;5053537;28;20082;-57
2022/09/15 03:18:47;;;;;;;5.78;5.00;;;15.30;99.90;;;;;;5053081;28;20078;-58
2022/09/15 03:21:14;;;;;;;7.28;6.28;;;15.30;99.90;;;;;;5051460;28;20032;-57
2022/09/15 03:23:40;;;;;;;6.78;5.10;;;15.30;99.90;;;;;;5052884;28;20021;-57
2022/09/15 03:26:07;;;;;;;6.95;5.50;;;15.30;99.90;;;;;;5053489;28;20025;-57
2022/09/15 03:28:34;;;;;;;7.68;5.20;;;15.30;99.90;;;;;;5052966;28;20017;-57
2022/09/15 03:30:59;;;;;;;7.75;5.05;;;15.30;99.90;;;;;;5051882;28;20432;-56
2022/09/15 03:33:25;;;;;;;9.07;5.55;;;15.30;99.90;;;;;;5051591;28;20013;-57
2022/09/15 03:35:51;;;;;;;7.22;4.72;;;15.30;99.90;;;;;;5051830;28;20063;-57
2022/09/15 03:38:17;;;;;;;5.50;4.63;;;15.30;99.90;;;;;;5051171;28;20040;-57
2022/09/15 03:40:43;;;;;;;5.45;4.70;;;15.30;99.90;;;;;;5042502;28;20100;-58
2022/09/15 03:43:11;;;;;;;5.13;4.22;;;15.30;99.90;;;;;;5049130;28;20492;-57
2022/09/15 03:45:37;;;;;;;6.25;4.13;;;15.30;99.90;;;;;;5052802;28;20087;-58
2022/09/15 03:48:04;;;;;;;6.35;5.13;;;15.30;99.90;;;;;;5051281;28;20025;-59
2022/09/15 03:50:31;;;;;;;8.45;4.18;;;15.30;99.90;;;;;;5051667;28;20021;-57
2022/09/15 03:52:59;;;;;;;6.45;4.50;;;15.30;99.90;;;;;;5052405;28;20021;-58
2022/09/15 03:55:25;;;;;;;5.47;4.20;;;15.30;99.90;;;;;;5052646;28;20051;-58
2022/09/15 03:57:51;;;;;;;4.95;3.97;;;15.30;99.90;;;;;;5051217;28;20040;-58
2022/09/15 04:00:17;;;;;;;5.10;3.95;;;15.30;99.90;;;;;;5052980;28;20035;-58
2022/09/15 04:02:42;;;;;;;4.57;4.05;;;15.30;99.90;;;;;;5052186;28;20051;-58
2022/09/15 04:05:08;;;;;;;5.50;4.50;;;15.30;99.90;;;;;;5042853;28;20037;-58
2022/09/15 04:07:34;;;;;;;4.53;4.03;;;15.30;99.90;;;;;;5050611;28;20472;-57
2022/09/15 04:10:00;;;;;;;5.20;4.13;;;15.30;99.90;;;;;;5051255;28;20025;-57
2022/09/15 04:12:26;;;;;;;5.50;3.95;;;15.30;99.90;;;;;;5052271;28;20045;-58
2022/09/15 04:14:52;;;;;;;4.57;3.92;;;15.30;99.90;;;;;;5051333;28;20461;-57
2022/09/15 04:17:18;;;;;;;5.85;4.28;;;15.40;99.90;;;;;;5052213;28;20074;-58
2022/09/15 04:19:43;;;;;;;5.95;3.97;;;15.40;99.90;;;;;;5051464;28;20361;-58
2022/09/15 04:22:09;;;;;;;5.47;4.13;;;15.40;99.90;;;;;;5050621;28;20040;-57
2022/09/15 04:24:35;;;;;;;6.25;4.25;;;15.40;99.90;;;;;;5052361;28;20032;-58
2022/09/15 04:27:01;;;;;;;5.35;3.63;;;15.30;99.90;;;;;;5050558;28;20048;-57
2022/09/15 04:29:26;;;;;;;4.30;3.63;;;15.30;99.90;;;;;;5049771;28;20473;-58
2022/09/15 04:31:52;;;;;;;6.35;3.78;;;15.30;99.90;;;;;;5051574;28;20094;-57
2022/09/15 04:34:17;;;;;;;3.97;3.58;;;15.30;99.90;;;;;;5051032;28;20032;-58
2022/09/15 04:36:43;;;;;;;5.82;4.43;;;15.30;99.90;;;;;;5048184;28;20489;-58
2022/09/15 04:39:09;;;;;;;6.00;3.92;;;15.30;99.90;;;;;;5051188;28;20029;-57
2022/09/15 04:41:34;;;;;;;4.78;3.35;;;15.40;99.90;;;;;;5051806;28;20045;-57
2022/09/15 04:44:00;;;;;;;4.45;3.70;;;15.30;99.90;;;;;;5051975;28;20400;-58
2022/09/15 04:46:26;;;;;;;6.55;3.60;;;15.30;99.90;;;;;;5051884;28;20531;-57
2022/09/15 04:48:52;;;;;;;4.43;3.78;;;15.30;99.90;;;;;;5051767;28;20025;-58
2022/09/15 04:51:20;;;;;;;5.13;3.22;;;15.30;99.90;;;;;;5049511;28;20021;-57
2022/09/15 04:53:46;;;;;;;3.95;3.30;;;15.40;99.90;;;;;;5049749;28;20029;-58
2022/09/15 04:56:15;;;;;;;4.68;3.45;;;15.30;99.90;;;;;;5053617;28;20078;-58
2022/09/15 04:58:43;;;;;;;4.07;2.88;;;15.30;99.90;;;;;;5054563;28;20439;-57
2022/09/15 05:01:14;;;;;;;4.13;3.30;;;15.30;99.90;;;;;;5051903;28;20025;-57
2022/09/15 05:03:40;;;;;;;4.00;3.13;;;15.30;99.90;;;;;;5054810;28;20418;-58
2022/09/15 05:06:08;;;;;;;5.53;3.60;;;15.30;99.90;;;;;;5052038;28;20100;-57
2022/09/15 05:08:34;;;;;;;4.63;3.67;;;15.30;99.90;;;;;;5054476;28;20451;-58
2022/09/15 05:11:05;;;;;;;5.50;3.63;;;15.30;99.90;;;;;;5056057;28;20038;-57
2022/09/15 05:13:31;;;;;;;6.85;3.30;;;15.30;99.90;;;;;;5055151;28;20060;-57
2022/09/15 05:16:03;;;;;;;5.13;3.75;;;15.30;99.90;;;;;;5056050;28;20090;-58
2022/09/15 05:18:30;;;;;;;4.93;4.43;;;15.30;99.90;;;;;;5055342;28;20024;-57
2022/09/15 05:20:59;;;;;;;7.38;4.55;;;15.30;99.90;;;;;;5055901;28;20017;-57
2022/09/15 05:23:25;;;;;;;4.88;3.75;;;15.30;99.90;;;;;;5042063;28;20029;-58
2022/09/15 05:25:58;;;;;;;4.68;3.90;;;15.30;99.90;;;;;;5055537;28;20029;-57
2022/09/15 05:28:24;;;;;;;5.20;3.72;;;15.30;99.90;;;;;;5055043;28;20472;-57
2022/09/15 05:30:51;;;;;;;3.78;3.40;;;15.30;99.90;;;;;;5054477;28;20027;-58
2022/09/15 05:33:18;;;;;;;6.95;3.88;;;15.30;99.90;;;;;;5053891;28;20384;-58
2022/09/15 05:35:59;;;;;;;5.28;3.58;;;15.30;99.90;;;;;;5060184;28;20090;-58
2022/09/15 05:38:27;;;;;;;3.85;3.00;;;15.40;99.90;;;;;;5050670;28;20024;-57
2022/09/15 05:40:52;;;;;;;3.92;2.70;;;15.30;99.90;;;;;;5042319;28;20073;-57
2022/09/15 05:43:19;;;;;;;5.18;3.35;;;15.30;99.90;;;;;;5053445;28;20040;-57
2022/09/15 05:45:53;;;;;;;5.13;2.92;;;15.30;99.90;;;;;;5055226;28;20037;-58
2022/09/15 05:48:18;;;;;;;4.18;2.63;;;15.40;99.90;;;;;;5054325;28;20087;-58
2022/09/15 05:50:48;;;;;;;4.43;3.20;;;15.30;99.90;;;;;;5055122;28;20021;-58
2022/09/15 05:53:14;;;;;;;3.15;2.42;;;15.40;99.90;;;;;;5052714;28;20029;-57
2022/09/15 05:55:40;;;;;;;3.85;2.72;;;15.40;99.90;;;;;;5063517;28;20031;-57
2022/09/15 05:58:05;;;;;;;4.13;3.03;;;15.40;99.90;;;;;;5054031;28;20059;-57
2022/09/15 06:00:31;;;;;;;3.20;2.50;;;15.40;99.90;;;;;;5053881;28;20377;-58
2022/09/15 06:02:57;;;;;;;4.80;2.42;;;15.50;99.90;;;;;;5045807;28;20070;-57
2022/09/15 06:05:22;;;;;;;3.78;2.30;;;15.50;99.90;;;;;;5052980;28;20028;-57
2022/09/15 06:07:48;;;;;;;2.78;1.83;;;15.50;99.90;;;;;;5048903;28;20469;-58
2022/09/15 06:10:13;;;;;;;3.75;2.70;;;15.60;99.90;;;;;;5050220;28;20103;-57
2022/09/15 06:12:39;;;;;;;2.55;2.15;;;15.60;99.90;;;;;;5053440;28;20021;-57
2022/09/15 06:15:05;;;;;;;3.17;2.00;;;15.60;99.90;;;;;;5050286;28;20485;-58
2022/09/15 06:17:32;;;;;;;3.58;2.42;;;15.60;99.90;;;;;;5053033;28;20032;-58
2022/09/15 06:19:58;;;;;;;3.47;1.98;;;15.70;99.90;;;;;;5047136;28;20025;-57
2022/09/15 06:22:24;;;;;;;6.00;2.25;;;15.70;99.90;;;;;;5052913;28;20017;-58
2022/09/15 06:24:51;;;;;;;2.47;1.77;;;15.70;99.90;;;;;;5052751;28;20465;-58
2022/09/15 06:27:16;;;;;;;3.33;1.60;;;15.70;99.90;;;;;;5049856;28;20590;-58
2022/09/15 06:29:42;;;;;;;4.43;1.92;;;15.70;99.90;;;;;;5050232;28;20108;-58
2022/09/15 06:32:07;;;;;;;3.17;1.73;;;15.70;99.90;;;;;;5051675;28;20037;-58
2022/09/15 06:34:33;;;;;;;4.32;1.80;;;15.70;99.90;;;;;;5049805;28;20029;-57
2022/09/15 06:36:58;;;;;;;2.85;1.85;;;15.80;99.90;;;;;;5052584;28;20405;-58
2022/09/15 06:39:25;;;;;;;1.92;1.35;;;15.80;99.90;;;;;;5052553;28;20384;-59
2022/09/15 06:41:51;;;;;;;2.25;1.45;;;15.90;99.90;;;;;;5052450;28;20041;-58
2022/09/15 06:44:17;;;;;;;4.38;1.75;;;15.90;99.90;;;;;;5064792;28;20424;-58
2022/09/15 06:46:43;;;;;;;3.20;1.20;;;15.90;99.90;;;;;;5050376;28;20044;-57
2022/09/15 06:49:08;;;;;;;3.28;1.33;;;16.00;99.90;;;;;;5047417;28;20063;-58
2022/09/15 06:51:35;;;;;;;3.72;1.40;;;16.10;99.90;;;;;;5051463;28;20045;-58
2022/09/15 06:54:01;;;;;;;3.15;1.33;;;16.20;99.90;;;;;;5050853;28;20029;-58
2022/09/15 06:56:28;;;;;;;3.22;1.60;;;16.30;99.90;;;;;;5049196;28;20025;-57
2022/09/15 06:58:54;;;;;;;3.03;1.30;;;16.30;99.90;;;;;;5045212;28;20029;-58
2022/09/15 07:01:24;;;;;;;3.45;1.23;;;16.30;99.90;;;;;;5050928;28;20020;-58
2022/09/15 07:03:53;;;;;;;5.30;1.10;;;16.40;99.90;;;;;;5047588;28;20074;-58
2022/09/15 07:06:19;;;;;;;2.03;1.00;;;16.40;99.90;;;;;;5053577;28;20086;-57
2022/09/15 07:08:45;;;;;;;2.92;0.90;;;16.40;99.90;;;;;;5053045;28;20071;-57
2022/09/15 07:11:11;;;;;;;5.30;0.90;;;16.40;99.90;;;;;;5045756;28;20026;-58
2022/09/15 07:13:37;;;;;;;3.35;0.70;;;16.40;99.90;;;;;;5050323;28;20566;-58
2022/09/15 07:16:04;;;;;;;2.53;0.75;;;16.40;99.90;;;;;;5051574;28;20029;-58
2022/09/15 07:18:30;;;;;;;1.30;0.40;;;16.50;99.90;;;;;;5051476;28;20021;-58
2022/09/15 07:21:06;;;;;;;2.38;0.60;;;16.50;99.90;;;;;;5050295;28;20473;-58
2022/09/15 07:23:33;;;;;;;2.53;0.73;;;16.60;99.90;;;;;;5049106;28;20469;-58
2022/09/15 07:26:12;;;;;;;1.83;0.60;;;16.60;99.90;;;;;;5050996;28;20013;-59
2022/09/15 07:28:39;;;;;;;3.60;0.82;;;16.70;99.60;;;;;;5051154;28;20025;-58
2022/09/15 07:31:07;;;;;;;2.28;0.60;;;16.70;99.60;;;;;;5051144;28;20017;-58
2022/09/15 07:33:33;;;;;;;2.13;0.60;;;16.70;99.50;;;;;;5044384;28;20033;-57
2022/09/15 07:36:01;;;;;;;2.22;0.60;;;16.80;99.40;;;;;;5052089;28;20021;-58
2022/09/15 07:38:27;;;;;;;1.48;0.70;;;16.80;99.20;;;;;;5050912;28;20055;-57
2022/09/15 07:40:53;;;;;;;2.08;0.60;;;16.90;99.10;;;;;;5053979;28;20041;-57
2022/09/15 07:43:18;;;;;;;2.90;0.50;;;17.00;98.90;;;;;;5051153;28;20102;-57
2022/09/15 07:45:45;;;;;;;1.40;0.60;;;17.00;98.80;;;;;;5052691;28;20020;-57
2022/09/15 07:48:11;;;;;;;2.83;0.80;;;17.00;98.70;;;;;;5060450;28;20436;-57
2022/09/15 07:50:37;;;;;;;4.45;0.80;;;17.10;98.60;;;;;;5053367;28;20078;-57
2022/09/15 07:53:02;;;;;;;3.63;0.85;;;17.10;98.40;;;;;;5055657;28;20112;-57
2022/09/15 07:55:29;;;;;;;2.00;0.60;;;17.10;98.30;;;;;;5049311;28;20048;-57
2022/09/15 07:58:01;;;;;;;1.95;0.63;;;17.10;98.10;;;;;;5056527;28;20045;-56
2022/09/15 08:00:27;;;;;;;2.40;0.90;;;17.20;98.10;;;;;;5050061;28;20140;-58
2022/09/15 08:02:55;;;;;;;1.85;0.50;;;17.20;98.00;;;;;;5052558;28;20103;-56
2022/09/15 08:05:26;;;;;;;1.83;0.70;;;17.30;97.90;;;;;;5045159;28;20079;-57
2022/09/15 08:07:55;;;;;;;2.55;0.70;;;17.30;97.70;;;;;;5050701;28;20071;-58
2022/09/15 08:10:22;;;;;;;1.63;0.68;;;17.40;97.60;;;;;;5050785;28;20021;-57
2022/09/15 08:12:48;;;;;;;1.52;0.60;;;17.50;97.50;;;;;;5051634;28;20377;-58
2022/09/15 08:15:13;;;;;;;3.13;0.65;;;17.50;97.40;;;;;;5049129;28;20032;-57
2022/09/15 08:17:39;;;;;;;3.95;0.80;;;17.60;97.20;;;;;;5051481;28;20049;-58
2022/09/15 08:20:05;;;;;;;2.17;0.70;;;17.70;97.10;;;;;;5048590;28;20473;-58
2022/09/15 08:22:31;;;;;;;4.72;0.80;;;17.70;96.90;;;;;;5040361;28;20024;-57
2022/09/15 08:24:56;;;;;;;2.30;0.85;;;17.80;96.60;;;;;;5050824;28;20075;-58
2022/09/15 08:27:22;;;;;;;2.58;0.80;;;17.80;96.40;;;;;;5050854;28;20108;-57
2022/09/15 08:29:48;;;;;;;2.17;0.65;;;17.90;96.20;;;;;;5047831;28;20113;-57
2022/09/15 08:32:13;;;;;;;2.30;0.70;;;17.90;96.20;;;;;;5050105;28;20024;-57
2022/09/15 08:34:39;;;;;;;3.30;0.77;;;18.00;96.00;;;;;;5049287;28;20040;-57
2022/09/15 08:37:04;;;;;;;3.40;1.17;;;18.00;95.90;;;;;;5050591;28;20036;-57
2022/09/15 08:39:30;;;;;;;3.35;1.00;;;18.00;95.80;;;;;;5050658;28;20547;-57
2022/09/15 08:41:59;;;;;;;3.75;1.20;;;18.00;95.70;;;;;;5050435;28;20535;-58
2022/09/15 08:44:54;;;;;;;2.58;0.98;;;18.10;95.50;;;;;;5049020;28;20053;-58
2022/09/15 08:47:26;;;;;;;2.35;0.88;;;18.10;95.30;;;;;;5059961;28;20032;-57
2022/09/15 08:50:01;;;;;;;2.88;0.80;;;18.10;95.40;;;;;;5065687;28;20354;-58
2022/09/15 08:52:39;;;;;;;4.20;0.70;;;18.10;95.00;;;;;;5048877;28;20025;-58
2022/09/15 08:55:19;;;;;;;3.58;0.50;;;18.10;94.80;;;;;;5050623;28;20040;-57
2022/09/15 08:57:44;;;;;;;;;;;18.10;94.60;;;;;;5050633;28;20400;-58
2022/09/15 09:00:15;;;;;;;1.85;0.50;;;18.10;94.80;;;;;;5049745;28;20127;-58
2022/09/15 09:03:08;;;;;;;1.55;0.40;;;18.00;94.60;;;;;;5048125;28;20078;-58
2022/09/15 09:05:39;;;;;;;1.75;0.50;;;18.00;94.60;;;;;;5046478;28;20542;-58
2022/09/15 09:08:17;;;;;;;2.22;0.40;;;18.00;94.60;;;;;;5033708;28;20374;-60
2022/09/15 09:10:51;;;;;;;2.03;0.40;;;18.10;94.40;;;;;;5047056;28;20499;-58
2022/09/15 09:13:22;;;;;;;2.95;0.70;;;18.10;94.40;;;;;;5051260;28;20036;-58
2022/09/15 09:16:18;;;;;;;3.10;0.40;;;18.10;94.40;;;;;;5060386;28;20104;-58
2022/09/15 09:19:21;;;;;;;2.90;0.43;;;18.20;94.10;;;;;;5049140;28;20036;-58
2022/09/15 09:21:53;;;;;;;4.65;0.50;;;18.30;94.00;;;;;;5051963;28;20049;-58
2022/09/15 09:24:41;;;;;;;4.43;0.80;;;18.40;93.90;;;;;;5042441;28;20029;-58
2022/09/15 09:27:22;;;;;;;2.45;0.45;;;18.60;93.80;;;;;;5045309;28;20021;-58
2022/09/15 09:29:53;;;;;;;3.85;0.65;;;18.70;93.50;;;;;;5046419;28;20025;-58
2022/09/15 09:32:31;;;;;;;2.63;0.75;;;18.80;93.00;;;;;;5047275;28;20524;-58
2022/09/15 09:35:26;;;;;;;4.00;0.68;;;19.00;92.60;;;;;;5044655;28;20032;-58
2022/09/15 09:37:52;;;;;;;2.45;0.30;;;19.10;92.20;;;;;;5033989;28;20021;-58
2022/09/15 09:40:19;;;;;;;2.35;0.50;;;19.20;92.00;;;;;;5035324;28;20131;-58
2022/09/15 09:42:45;;;;;;;2.75;0.40;;;19.30;91.80;;;;;;5047415;28;20029;-58
2022/09/15 09:45:13;;;;;;;3.25;0.70;;;19.40;91.50;;;;;;5042450;28;20464;-58
2022/09/15 09:47:40;;;;;;;2.25;0.40;;;19.60;91.30;;;;;;5052773;28;20056;-58
2022/09/15 09:50:37;;;;;;;3.35;0.50;;;19.60;90.70;;;;;;5040436;28;20029;-58
2022/09/15 09:53:21;;;;;;;3.58;0.50;;;19.70;90.00;;;;;;5052081;28;20036;-58
2022/09/15 09:55:47;;;;;;;1.48;0.45;;;19.60;89.80;;;;;;5065585;28;20032;-58
2022/09/15 09:58:18;;;;;;;2.08;0.40;;;19.60;90.00;;;;;;5050615;28;20644;-58
2022/09/15 10:00:44;;;;;;;3.10;0.43;;;19.70;89.30;;;;;;5051303;28;20029;-58
2022/09/15 10:03:22;;;;;;;2.33;0.55;;;19.60;89.20;;;;;;5048546;28;20025;-58
2022/09/15 10:06:22;;;;;;;3.05;0.45;;;19.60;88.50;;;;;;5043325;28;20033;-58
2022/09/15 10:09:03;;;;;;;1.80;0.20;;;19.40;88.70;;;;;;5036125;28;20516;-59
2022/09/15 10:11:50;;;;;;;1.75;0.40;;;19.30;88.90;;;;;;5045800;28;20048;-58
2022/09/15 10:14:32;;;;;;;3.28;0.60;;;19.20;89.00;;;;;;5049726;28;20496;-58
2022/09/15 10:17:14;;;;;;;2.20;0.30;;;19.20;89.40;;;;;;5051125;28;20029;-58
2022/09/15 10:19:54;;;;;;;2.00;0.32;;;19.10;89.30;;;;;;5048660;28;20460;-58
2022/09/15 10:22:27;;;;;;;1.98;0.40;;;19.10;89.30;;;;;;5043630;28;20439;-58
2022/09/15 10:24:53;;;;;;;2.78;0.32;;;19.10;89.30;;;;;;5040971;28;20032;-57
2022/09/15 10:27:19;;;;;;;2.03;0.40;;;19.10;89.30;;;;;;5042505;28;20025;-57
2022/09/15 10:29:45;;;;;;;2.22;0.30;;;19.10;88.90;;;;;;5063861;28;20531;-58
2022/09/15 10:32:25;;;;;;;1.40;0.60;;;19.10;88.50;;;;;;5041234;28;20030;-58
2022/09/15 10:35:03;;;;;;;2.50;0.40;;;19.10;88.20;;;;;;5041984;28;20033;-58
2022/09/15 10:37:47;;;;;;;1.73;0.30;;;19.10;88.30;;;;;;5044447;28;20024;-57
2022/09/15 10:40:39;;;;;;;2.22;0.45;;;19.10;87.60;;;;;;5046845;28;20518;-58
2022/09/15 10:43:26;;;;;;;1.20;0.45;;;19.10;87.00;;;;;;5039555;28;20059;-58
2022/09/15 10:46:11;;;;;;;1.55;0.40;;;19.00;86.90;;;;;;5049949;28;20512;-57
2022/09/15 10:49:19;;;;;;;1.45;0.30;;;19.00;87.30;;;;;;5051659;28;20045;-58
2022/09/15 10:52:06;;;;;;;1.42;0.35;;;19.00;86.60;;;;;;5059489;28;20071;-58
2022/09/15 10:54:57;;;;;;;1.65;0.30;;;18.90;86.70;;;;;;5068873;28;20060;-58
2022/09/15 10:57:44;;;;;;;2.70;0.40;;;18.90;86.50;;;;;;5048344;28;20031;-58
2022/09/15 11:00:13;;;;;;;2.78;0.60;;;19.00;86.90;;;;;;5047760;28;20070;-57
2022/09/15 11:03:00;;;;;;;1.83;0.30;;;19.10;86.80;;;;;;5052445;28;20385;-58
2022/09/15 11:05:32;;;;;;;2.55;0.38;;;19.10;86.20;;;;;;5052524;28;20017;-57
2022/09/15 11:08:25;;;;;;;1.85;0.30;;;19.10;86.40;;;;;;5055226;28;20028;-58
2022/09/15 11:11:15;;;;;;;1.63;0.32;;;19.20;86.20;;;;;;5051992;28;20037;-57
2022/09/15 11:13:45;;;;;;;3.65;0.40;;;19.20;85.90;;;;;;5053761;28;20024;-57
2022/09/15 11:16:30;;;;;;;1.88;0.40;;;19.20;86.30;;;;;;5051141;28;20473;-58
2022/09/15 11:19:20;;;;;;;2.25;0.35;;;19.30;86.30;;;;;;5057313;28;20103;-58
2022/09/15 11:21:51;;;;;;;1.13;0.40;;;19.40;86.30;;;;;;5046689;28;20024;-58
2022/09/15 11:24:40;;;;;;;2.40;0.45;;;19.50;86.20;;;;;;5055310;28;20059;-58
2022/09/15 11:27:24;;;;;;;2.42;0.30;;;20.50;85.00;;;;;;5033051;28;20025;-58
2022/09/15 11:30:14;;;;;;;1.15;0.43;;;21.40;83.20;;;;;;5069056;28;20033;-58
2022/09/15 11:32:42;;;;;;;3.00;0.60;;;21.80;81.80;;;;;;5058826;28;20388;-58
2022/09/15 11:35:39;;;;;;;3.03;0.60;;;22.80;80.00;;;;;;5053506;28;20052;-58
2022/09/15 11:38:25;;;;;;;2.00;0.50;;;23.10;77.40;;;;;;5039661;28;20064;-58
2022/09/15 11:41:08;;;;;;;4.05;0.60;;;23.30;76.50;;;;;;5052749;28;20045;-58
2022/09/15 11:44:00;;;;;;;1.65;0.40;;;24.80;75.60;;;;;;5051811;28;20029;-58
2022/09/15 11:46:56;;;;;;;2.35;0.43;;;26.60;72.60;;;;;;5051455;28;20110;-58
2022/09/15 11:49:28;;;;;;;2.17;0.60;;;27.40;66.30;;;;;;5050199;28;20392;-58
2022/09/15 11:52:06;;;;;;;3.83;0.50;;;27.30;65.60;;;;;;5052135;28;20131;-58
2022/09/15 11:55:01;;;;;;;2.95;0.47;;;27.10;64.90;;;;;;5051560;28;20032;-58
2022/09/15 11:57:35;;;;;;;2.05;0.60;;;27.40;64.70;;;;;;5051606;28;20075;-58
2022/09/15 12:00:09;;;;;;;3.08;0.75;;;27.70;62.90;;;;;;5051501;28;20449;-58
2022/09/15 12:02:50;;;;;;;2.47;0.55;;;27.40;61.50;;;;;;5051106;28;20029;-58
2022/09/15 12:05:28;;;;;;;1.90;0.40;;;27.50;61.70;;;;;;5052631;28;20033;-58
2022/09/15 12:08:15;;;;;;;1.23;0.30;;;27.50;61.10;;;;;;5039992;28;20029;-58
2022/09/15 12:10:46;;;;;;;1.33;0.40;;;28.20;60.70;;;;;;5051689;28;20021;-58
2022/09/15 12:13:17;;;;;;;2.90;0.50;;;29.20;59.10;;;;;;5051523;28;20040;-58
2022/09/15 12:15:44;;;;;;;1.77;0.50;;;30.10;57.10;;;;;;5051802;28;20021;-59
2022/09/15 12:18:46;;;;;;;2.58;0.50;;;31.50;55.60;;;;;;5051234;28;20362;-59
2022/09/15 12:21:14;;;;;;;1.75;0.50;;;32.40;49.40;;;;;;5059527;28;20374;-58
2022/09/15 12:24:15;;;;;;;2.97;0.85;;;32.30;47.60;;;;;;5039035;28;20028;-58
2022/09/15 12:26:42;;;;;;;1.77;0.45;;;32.70;45.70;;;;;;5044665;28;20070;-59
2022/09/15 12:29:39;;;;;;;2.13;0.60;;;32.50;45.60;;;;;;5051931;28;20017;-59
2022/09/15 12:32:20;;;;;;;2.00;0.52;;;32.30;45.20;;;;;;5054427;28;20028;-59
2022/09/15 12:35:15;;;;;;;1.90;0.60;;;32.60;44.30;;;;;;5050746;28;20366;-58
2022/09/15 12:37:44;;;;;;;2.75;0.65;;;32.60;42.10;;;;;;5052125;28;20063;-59
2022/09/15 12:40:28;;;;;;;3.60;0.90;;;32.70;41.20;;;;;;5037754;28;20136;-59
2022/09/15 12:42:55;;;;;;;2.92;0.50;;;32.10;40.90;;;;;;5050760;28;20052;-59
2022/09/15 12:45:35;;;;;;;4.40;0.40;;;31.90;41.20;;;;;;5052226;28;20508;-58
2022/09/15 12:48:14;;;;;;;2.80;0.52;;;32.20;41.20;;;;;;5051213;28;20013;-58
2022/09/15 12:50:41;;;;;;;1.50;0.32;;;32.80;40.90;;;;;;5051807;28;20393;-59
2022/09/15 12:53:20;;;;;;;2.35;0.50;;;33.60;40.60;;;;;;5050720;28;20041;-59
2022/09/15 12:56:01;;;;;;;1.38;0.40;;;33.40;40.10;;;;;;5050170;28;20021;-58
2022/09/15 12:58:45;;;;;;;2.58;0.55;;;33.50;39.30;;;;;;5050886;28;20029;-58
2022/09/15 13:01:17;;;;;;;2.30;0.50;;;34.00;38.90;;;;;;5051144;28;20108;-58
2022/09/15 13:03:42;;;;;;;0.90;0.40;;;33.60;38.70;;;;;;5051118;28;20022;-58
2022/09/15 13:06:19;;;;;;;1.75;0.40;;;33.60;39.00;;;;;;5050302;28;20037;-59
2022/09/15 13:08:51;;;;;;;1.25;0.57;;;34.30;38.10;;;;;;5038504;28;20080;-58
2022/09/15 13:11:24;;;;;;;1.20;0.57;;;35.10;36.70;;;;;;5051027;28;20017;-58
2022/09/15 13:14:11;;;;;;;1.17;0.50;;;35.30;35.80;;;;;;5055000;28;20468;-59
2022/09/15 13:16:40;;;;;;;0.93;0.47;;;34.60;34.90;;;;;;5053533;28;20017;-59